Aviation Digital Data Service (ADDS)

Output produced by METARs form (0619 UTC 19 March 2019)
found at http://www.aviationweather.gov/metar/data/
 
Forecast for: OEDR (DHAHRAN INTL (MI, SA)
Text: TAF OEDR 190230Z 1906/2012 34010G20KT CAVOK
Forecast period: 0600 to 1800 UTC 19 March 2019
Forecast type: FROM: standard forecast or significant change
Winds: from the NNW (340 degrees) at 12 MPH (10 knots; 5.1 m/s)
gusting to 23 MPH (20 knots; 10.3 m/s)
Visibility: 6 or more miles 10+ km)
Ceiling: unknown
Clouds: missing
Weather: NSW  (no significant weather)
Text: BECMG 1918/1920 VRB03KT
Forecast period: 1800 UTC 19 March 2019 to 1200 UTC 20 March 2019
Forecast type: BECOMING: Conditions expected to become as follows by 2000 UTC 19 March 2019
Winds: variable direction winds at 3 MPH (3 knots; 1.5 m/s)
Visibility: 6 or more miles 10+ km)
Ceiling: unknown
Clouds: missing
Weather: NSW  (no significant weather)